KCMX/CMX METAR and TAF weather

Enter ICAO airport designator
Station Type Date Time Source
KCMX METAR 2021/03/03 01:53 UTC NOAA

KCMX 030153Z AUTO 28018G28KT 10SM CLR 04/M03 A2965 RMK AO2 PK WND 27029/0137 SLP054 T00441033 $


Station Type Date Time Source
KCMX Decoded METAR 2021/03/03 01:53 UTC NOAA

HANCOCK HOUGHTON CTY. MEMO, MI, United States (KCMX) 47-10N 088-29W 326M
Mar 02, 2021 - 08:53 PM EST / 2021.03.03 0153 UTC
Wind: from the W (280 degrees) at 21 MPH (18 KT) gusting to 32 MPH (28 KT):0
Visibility: 10 mile(s):0
Sky conditions: clear
Temperature: 39.9 F (4.4 C)
Dew Point: 26.1 F (-3.3 C)
Relative Humidity: 57%
Pressure (altimeter): 29.65 in. Hg (1004 hPa)
ob: KCMX 030153Z AUTO 28018G28KT 10SM CLR 04/M03 A2965 RMK AO2 PK WND 27029/0137 SLP054 T00441033
cycle: 2

Station Type Date Time Source
KCMX TAF 2021/03/02 18:36 UTC NOAA

TAF KCMX 021735Z 0218/0318 24017G28KT P6SM BKN110
FM030200 27013KT P6SM SCT060
FM030600 31010KT P6SM BKN030
FM030900 32012KT P6SM BKN025

Example: see airport list